Hamada, Japan

6:27 AM JST on February 14, 2016 (GMT +0900)
Iwakuni Marine Corps Air Station | | Change Station
CLOSE
Current Station
Airport
Location: Iwakuni MCAS,
Elevation: 7 ft
Nearby Weather Stations

Elev 7 ft 34.14 °N, 132.24 °E | Updated 32 minutes ago

Overcast
Overcast
63 °F
Feels Like 63 °F
N
14
Wind Variable Wind from SW
Gusts 21 mph

Today
High -- | Low -- °F
--% Chance of Precip.
Yesterday
High -- | Low -- °F
Precip. -- in
Pressure 29.63 in
Visibility 6.2 miles
Clouds Few 1500 ft
Mostly Cloudy 2500 ft
Overcast 4000 ft
Dew Point 60 °F
Humidity 90%
Rainfall 0.05 in
Snow Depth Not available.
6:59 AM 5:52 PM
Waxing Crescent, 34% visible
METAR RJOI 132055Z 23012G18KT 9999 FEW015 BKN025 OVC040 17/16 A2963 RMK SLP033 60002 T01720156 53003
Pressure 29.63 in
Visibility 6.2 miles
Clouds Few 1500 ft
Mostly Cloudy 2500 ft
Overcast 4000 ft
Dew Point 60 °F
Humidity 90%
Rainfall 0.05 in
Snow Depth Not available.
6:59 AM 5:52 PM
Waxing Crescent, 34% visible
METAR RJOI 132055Z 23012G18KT 9999 FEW015 BKN025 OVC040 17/16 A2963 RMK SLP033 60002 T01720156 53003

10-Day Weather Forecast

No radar image for this location.
×

Almanac

Astronomy

Feb. 14, 2016 Rise Set
Actual Time
Civil Twilight
Nautical Twilight
Astronomical Twilight
Moon
Length of Visible Light
Length of Day
Tomorrow will be .
, % of the Moon is Illuminated

Today's Extremes

Country Highs Country Lows

Community

WunderPhotos

Upload Photos

1,892,670 photos uploaded!

WunderBlog® & News

Nearby

Air Quality

  Air Quality AQ Index Pollutant
Not available.

Snow Depth

Station Depth Elevation

Earthquake Activity

City Distance Mag. Time & Date
Minimum magnitude displayed is 2.5.

Coastal Water Temperatures

Place Temperature

Stations

Nearby Weather Stations

Station Location Temp. Windchill Dew Point Humidity Wind Precip. Elev Updated Type